Daphne, Alabama
Current Conditions -  °F | °C
As of 11:15 AM on Friday 28 Nov 2014 (Local Time) from KCQF Reporting Station
Clear Clear  
Wind Chill: 50°   Ceiling: Unl
Heat Index: 50°   Visibility: 10mi
Dew Point: 30°   Wind: 0mph
Humidity: 47%   Direction: NA
Pressure: 30.4"   Gusts: NA
Location:  30.6°N, 87.9°W
Report Text: KCQF 281715Z AUTO 00000KT 10SM CLR 10/M01 A3040 RMK AO2
Loading
Personal Weather Stations






























Interactive Weather Map New forecast layout! Learn more

10-Day Weather Forecast

Advertisements
Track Severe Weather on mobile